Time;durP1;ratioP1;P1;durP2;ratioP2;P2;SDS_P1;SDS_P2;PMS_P1;PMS_P2;Temp;Humidity;BMP_temperature;BMP_pressure;BME280_temperature;BME280_humidity;BME280_pressure;Samples;Min_cycle;Max_cycle;Signal;HPM_P1;HPM_P2
2024/01/05 00:00:59;;;;;;;56.10;9.48;;;9.40;96.70;;;;;;5122358;28;20024;-58
2024/01/05 00:03:24;;;;;;;49.53;9.27;;;9.40;96.80;;;;;;5106573;28;20051;-58
2024/01/05 00:05:50;;;;;;;46.88;9.18;;;9.30;96.80;;;;;;5106081;28;20032;-58
2024/01/05 00:08:15;;;;;;;63.75;9.20;;;9.30;96.80;;;;;;5106841;28;20081;-58
2024/01/05 00:10:41;;;;;;;53.17;10.25;;;9.30;96.80;;;;;;5105134;28;20047;-58
2024/01/05 00:13:06;;;;;;;45.63;8.52;;;9.30;96.80;;;;;;5106436;28;20024;-59
2024/01/05 00:15:32;;;;;;;54.05;8.43;;;9.30;96.80;;;;;;5105012;28;20096;-58
2024/01/05 00:17:58;;;;;;;54.25;8.30;;;9.20;96.80;;;;;;5104956;28;20017;-58
2024/01/05 00:20:23;;;;;;;43.65;7.82;;;9.30;96.80;;;;;;5106140;28;20027;-58
2024/01/05 00:22:49;;;;;;;47.63;8.52;;;9.20;96.80;;;;;;5106372;28;20024;-58
2024/01/05 00:25:16;;;;;;;58.05;8.50;;;9.30;96.90;;;;;;5105921;28;20032;-57
2024/01/05 00:27:42;;;;;;;47.47;8.38;;;9.20;96.90;;;;;;5121776;28;20020;-58
2024/01/05 00:30:08;;;;;;;46.55;8.23;;;9.20;96.90;;;;;;5087971;28;20134;-58
2024/01/05 00:32:33;;;;;;;37.63;8.55;;;9.20;96.90;;;;;;5106178;28;20046;-59
2024/01/05 00:34:59;;;;;;;44.83;7.70;;;9.20;97.00;;;;;;5105979;28;20433;-58
2024/01/05 00:37:25;;;;;;;45.97;7.10;;;9.20;97.00;;;;;;5121891;28;20058;-58
2024/01/05 00:39:50;;;;;;;44.33;7.55;;;9.20;97.00;;;;;;5104901;28;20035;-58
2024/01/05 00:42:17;;;;;;;40.13;7.35;;;9.20;97.00;;;;;;5121766;28;20043;-58
2024/01/05 00:44:42;;;;;;;41.60;7.63;;;9.10;97.00;;;;;;5122247;28;20050;-58
2024/01/05 00:47:08;;;;;;;52.95;7.80;;;9.10;97.00;;;;;;5109912;28;20036;-58
2024/01/05 00:49:34;;;;;;;46.90;7.50;;;9.10;97.00;;;;;;5110086;28;20024;-58
2024/01/05 00:51:59;;;;;;;35.13;7.60;;;9.10;97.00;;;;;;5125738;28;20024;-58
2024/01/05 00:54:25;;;;;;;48.08;8.27;;;9.10;97.10;;;;;;5110071;28;20016;-58
2024/01/05 00:56:51;;;;;;;30.27;6.60;;;9.00;97.00;;;;;;5125504;28;20058;-58
2024/01/05 00:59:20;;;;;;;38.28;7.18;;;9.00;97.10;;;;;;5108472;28;20096;-58
2024/01/05 01:01:45;;;;;;;38.08;7.88;;;9.00;97.10;;;;;;5125418;28;20024;-58
2024/01/05 01:04:11;;;;;;;37.80;7.45;;;9.00;97.10;;;;;;5091394;28;20028;-58
2024/01/05 01:06:36;;;;;;;41.05;6.78;;;9.00;97.10;;;;;;5091463;28;20032;-58
2024/01/05 01:09:02;;;;;;;36.70;6.32;;;9.00;97.10;;;;;;5109672;28;20044;-58
2024/01/05 01:11:28;;;;;;;33.17;6.93;;;9.00;97.20;;;;;;5109605;28;20542;-58
2024/01/05 01:13:53;;;;;;;34.80;6.85;;;9.00;97.20;;;;;;5125439;28;20081;-58
2024/01/05 01:16:19;;;;;;;28.10;6.68;;;9.00;97.20;;;;;;5125430;28;20028;-58
2024/01/05 01:18:45;;;;;;;34.38;6.65;;;8.90;97.20;;;;;;5109602;28;20024;-58
2024/01/05 01:21:10;;;;;;;41.13;7.47;;;8.90;97.20;;;;;;5109472;28;20087;-58
2024/01/05 01:23:36;;;;;;;37.55;6.78;;;8.90;97.20;;;;;;5124987;28;20053;-58
2024/01/05 01:26:01;;;;;;;36.08;7.15;;;8.90;97.20;;;;;;5109239;28;20039;-58
2024/01/05 01:28:28;;;;;;;30.40;7.07;;;8.90;97.30;;;;;;5109303;28;20464;-58
2024/01/05 01:30:53;;;;;;;23.63;5.47;;;8.90;97.30;;;;;;5109091;28;20047;-58
2024/01/05 01:33:19;;;;;;;33.33;5.88;;;8.90;97.30;;;;;;5107713;28;20035;-58
2024/01/05 01:35:44;;;;;;;31.02;6.55;;;8.80;97.30;;;;;;5124754;28;20060;-57
2024/01/05 01:38:10;;;;;;;35.10;6.90;;;8.90;97.30;;;;;;5107841;28;20463;-58
2024/01/05 01:40:36;;;;;;;24.90;6.40;;;8.80;97.30;;;;;;5108860;28;20077;-58
2024/01/05 01:43:03;;;;;;;24.83;5.38;;;8.80;97.30;;;;;;5124707;28;20027;-58
2024/01/05 01:45:30;;;;;;;26.35;5.72;;;8.80;97.40;;;;;;5108887;28;20048;-58
2024/01/05 01:47:56;;;;;;;23.65;5.60;;;8.80;97.40;;;;;;5108808;28;20028;-58
2024/01/05 01:50:24;;;;;;;28.17;5.70;;;8.80;97.40;;;;;;5108758;28;20024;-58
2024/01/05 01:52:49;;;;;;;37.40;5.82;;;8.80;97.40;;;;;;5108811;28;20035;-58
2024/01/05 01:55:16;;;;;;;25.80;6.47;;;8.80;97.40;;;;;;5124396;28;20024;-58
2024/01/05 01:57:42;;;;;;;26.80;5.75;;;8.80;97.40;;;;;;5107574;28;20103;-57
2024/01/05 02:00:09;;;;;;;23.92;6.38;;;8.70;97.40;;;;;;5108802;28;20495;-58
2024/01/05 02:02:34;;;;;;;37.22;7.32;;;8.70;97.50;;;;;;5108589;28;20050;-57
2024/01/05 02:05:00;;;;;;;30.02;5.70;;;8.70;97.40;;;;;;5108554;28;20052;-58
2024/01/05 02:07:25;;;;;;;23.95;5.50;;;8.70;97.40;;;;;;5108580;28;20051;-58
2024/01/05 02:09:51;;;;;;;26.88;5.25;;;8.70;97.40;;;;;;5109073;28;20059;-57
2024/01/05 02:12:17;;;;;;;34.78;5.90;;;8.70;97.50;;;;;;5108684;28;20024;-58
2024/01/05 02:14:43;;;;;;;27.45;5.18;;;8.70;97.50;;;;;;5108402;28;20024;-58
2024/01/05 02:17:30;;;;;;;24.55;5.20;;;8.70;97.50;;;;;;5124264;28;20032;-58
2024/01/05 02:19:56;;;;;;;21.50;4.55;;;8.70;97.50;;;;;;5108344;28;20051;-58
2024/01/05 02:22:22;;;;;;;25.23;5.65;;;8.70;97.50;;;;;;5108241;28;20450;-58
2024/01/05 02:24:47;;;;;;;25.98;5.45;;;8.70;97.50;;;;;;5108209;28;20032;-58
2024/01/05 02:27:13;;;;;;;19.48;4.63;;;8.60;97.50;;;;;;5108094;28;20507;-57
2024/01/05 02:29:38;;;;;;;28.73;5.63;;;8.60;97.50;;;;;;5108368;28;20388;-57
2024/01/05 02:32:04;;;;;;;20.70;5.30;;;8.70;97.60;;;;;;5108290;28;20056;-58
2024/01/05 02:34:30;;;;;;;25.38;5.95;;;8.60;97.60;;;;;;5107838;28;20078;-58
2024/01/05 02:36:55;;;;;;;18.95;5.43;;;8.60;97.50;;;;;;5107935;28;20024;-57
2024/01/05 02:39:21;;;;;;;28.42;5.43;;;8.60;97.60;;;;;;5108012;28;20028;-58
2024/01/05 02:41:47;;;;;;;26.52;5.70;;;8.60;97.60;;;;;;5107882;28;20089;-58
2024/01/05 02:44:12;;;;;;;27.42;5.30;;;8.60;97.90;;;;;;5107981;28;20490;-58
2024/01/05 02:46:38;;;;;;;24.20;5.43;;;8.60;97.60;;;;;;5107707;28;20025;-57
2024/01/05 02:49:03;;;;;;;20.95;4.97;;;8.60;97.60;;;;;;5107891;28;20020;-57
2024/01/05 02:51:29;;;;;;;17.67;4.63;;;8.60;97.60;;;;;;5107726;28;20024;-58
2024/01/05 02:53:55;;;;;;;21.13;4.38;;;8.60;97.60;;;;;;5107708;28;20030;-58
2024/01/05 02:56:21;;;;;;;22.45;5.55;;;8.60;97.60;;;;;;5107611;28;20035;-58
2024/01/05 02:58:47;;;;;;;15.55;4.30;;;8.60;97.60;;;;;;5107755;28;20052;-58
2024/01/05 03:01:18;;;;;;;19.05;5.18;;;8.50;97.60;;;;;;5107549;28;20028;-58
2024/01/05 03:03:45;;;;;;;21.02;4.47;;;8.50;97.60;;;;;;5107492;28;20043;-58
2024/01/05 03:06:11;;;;;;;19.92;4.75;;;8.50;97.70;;;;;;5105998;28;20415;-58
2024/01/05 03:08:37;;;;;;;16.90;5.05;;;8.50;97.70;;;;;;5107073;28;20025;-58
2024/01/05 03:11:02;;;;;;;19.13;4.45;;;8.50;97.70;;;;;;5107256;28;20028;-58
2024/01/05 03:13:28;;;;;;;16.33;4.25;;;8.50;97.70;;;;;;5107216;28;20053;-57
2024/01/05 03:15:54;;;;;;;28.27;5.28;;;8.60;97.70;;;;;;5107178;28;20476;-58
2024/01/05 03:18:19;;;;;;;17.33;4.35;;;8.50;97.70;;;;;;5107123;28;20036;-58
2024/01/05 03:20:46;;;;;;;18.52;5.13;;;8.50;97.60;;;;;;5106944;28;20392;-58
2024/01/05 03:23:11;;;;;;;15.02;4.20;;;8.50;97.70;;;;;;5106979;28;20028;-58
2024/01/05 03:25:37;;;;;;;18.20;5.13;;;8.50;97.60;;;;;;5107033;28;20039;-58
2024/01/05 03:28:03;;;;;;;14.35;4.07;;;8.50;97.60;;;;;;5107034;28;20024;-58
2024/01/05 03:30:28;;;;;;;17.95;4.70;;;8.50;97.70;;;;;;5088584;28;20035;-58
2024/01/05 03:32:54;;;;;;;14.63;3.85;;;8.50;97.70;;;;;;5106881;28;20050;-58
2024/01/05 03:35:19;;;;;;;15.98;4.22;;;8.50;97.70;;;;;;5106361;28;20129;-56
2024/01/05 03:37:45;;;;;;;18.92;4.13;;;8.50;97.70;;;;;;5106676;28;20024;-58
2024/01/05 03:40:11;;;;;;;15.65;3.70;;;8.50;97.70;;;;;;5106890;28;20068;-58
2024/01/05 03:42:36;;;;;;;15.23;4.22;;;8.50;97.80;;;;;;5106674;28;20031;-57
2024/01/05 03:45:02;;;;;;;17.85;4.68;;;8.50;97.80;;;;;;5106737;28;20028;-58
2024/01/05 03:47:27;;;;;;;16.67;4.32;;;8.40;97.80;;;;;;5106304;28;20028;-56
2024/01/05 03:49:53;;;;;;;18.42;4.50;;;8.40;97.80;;;;;;5106660;28;20032;-58
2024/01/05 03:52:19;;;;;;;13.18;3.38;;;8.50;97.80;;;;;;5106766;28;20035;-58
2024/01/05 03:54:45;;;;;;;13.95;4.25;;;8.40;97.80;;;;;;5088421;28;20027;-57
2024/01/05 03:57:10;;;;;;;16.15;4.03;;;8.40;97.80;;;;;;5088551;28;20043;-58
2024/01/05 03:59:36;;;;;;;12.75;4.00;;;8.40;97.80;;;;;;5107072;28;20531;-58
2024/01/05 04:02:01;;;;;;;16.98;4.25;;;8.40;97.80;;;;;;5106964;28;20028;-58
2024/01/05 04:04:27;;;;;;;12.82;3.50;;;8.40;97.80;;;;;;5088622;28;20376;-58
2024/01/05 04:06:53;;;;;;;14.02;4.10;;;8.40;97.80;;;;;;5106495;28;20032;-58
2024/01/05 04:09:18;;;;;;;12.43;4.38;;;8.40;97.80;;;;;;5106443;28;20114;-58
2024/01/05 04:11:44;;;;;;;13.75;3.67;;;8.40;97.80;;;;;;5106404;28;20092;-57
2024/01/05 04:14:09;;;;;;;8.38;2.83;;;8.40;97.80;;;;;;5106308;28;20020;-58
2024/01/05 04:16:35;;;;;;;12.88;3.72;;;8.40;97.80;;;;;;5106289;28;20392;-58
2024/01/05 04:19:01;;;;;;;10.88;3.72;;;8.40;97.90;;;;;;5106556;28;20024;-58
2024/01/05 04:21:26;;;;;;;10.95;3.25;;;8.40;97.90;;;;;;5109888;28;20043;-57
2024/01/05 04:23:54;;;;;;;11.55;3.50;;;8.40;97.90;;;;;;5110698;28;20028;-57
2024/01/05 04:26:20;;;;;;;15.70;4.35;;;8.40;97.90;;;;;;5110594;28;20036;-58
2024/01/05 04:28:45;;;;;;;11.38;3.60;;;8.40;97.90;;;;;;5110437;28;20024;-58
2024/01/05 04:31:11;;;;;;;10.27;3.17;;;8.40;97.90;;;;;;5110318;28;20095;-58
2024/01/05 04:33:36;;;;;;;10.75;3.83;;;8.40;97.90;;;;;;5110392;28;20031;-58
2024/01/05 04:36:03;;;;;;;10.20;3.42;;;8.40;97.90;;;;;;5092102;28;20139;-58
2024/01/05 04:38:29;;;;;;;13.07;3.30;;;8.40;97.90;;;;;;5110333;28;20097;-58
2024/01/05 04:40:55;;;;;;;13.27;3.75;;;8.40;97.90;;;;;;5110144;28;20029;-58
2024/01/05 04:43:20;;;;;;;12.80;3.80;;;8.40;97.90;;;;;;5092134;28;20028;-57
2024/01/05 04:45:46;;;;;;;13.50;4.38;;;8.40;97.90;;;;;;5091972;28;20102;-58
2024/01/05 04:48:12;;;;;;;10.07;3.10;;;8.40;97.90;;;;;;5091963;28;20059;-58
2024/01/05 04:50:38;;;;;;;13.35;3.60;;;8.40;97.90;;;;;;5110116;28;20084;-58
2024/01/05 04:53:03;;;;;;;10.05;3.38;;;8.40;97.90;;;;;;5109917;28;20031;-58
2024/01/05 04:55:29;;;;;;;8.45;3.17;;;8.40;97.90;;;;;;5109649;28;20048;-57
2024/01/05 04:57:55;;;;;;;15.38;3.45;;;8.40;97.90;;;;;;5109758;28;20030;-58
2024/01/05 05:00:20;;;;;;;10.77;3.40;;;8.40;98.00;;;;;;5109688;28;20054;-58
2024/01/05 05:02:46;;;;;;;7.70;3.08;;;8.30;98.00;;;;;;5109637;28;20036;-58
2024/01/05 05:05:12;;;;;;;9.45;2.95;;;8.30;97.90;;;;;;5109646;28;20044;-57
2024/01/05 05:07:37;;;;;;;9.20;3.10;;;8.30;97.90;;;;;;5091350;28;20065;-57
2024/01/05 05:10:03;;;;;;;10.50;3.00;;;8.40;97.90;;;;;;5109738;28;20047;-58
2024/01/05 05:12:29;;;;;;;16.73;3.70;;;8.40;97.90;;;;;;5109497;28;20054;-57
2024/01/05 05:14:54;;;;;;;12.95;3.33;;;8.40;97.90;;;;;;5109592;28;20032;-58
2024/01/05 05:17:20;;;;;;;9.73;3.40;;;8.40;97.90;;;;;;5109191;28;20050;-58
2024/01/05 05:19:46;;;;;;;17.27;3.65;;;8.40;98.00;;;;;;5109560;28;20035;-58
2024/01/05 05:22:11;;;;;;;11.43;3.08;;;8.40;98.00;;;;;;5109410;28;20091;-58
2024/01/05 05:24:37;;;;;;;8.40;3.15;;;8.40;98.10;;;;;;5109254;28;20024;-58
2024/01/05 05:27:03;;;;;;;15.30;4.10;;;8.40;98.10;;;;;;5109092;28;20036;-57
2024/01/05 05:29:28;;;;;;;16.02;3.95;;;8.40;98.10;;;;;;5090760;28;20047;-58
2024/01/05 05:31:54;;;;;;;31.52;5.28;;;8.40;98.20;;;;;;5109036;28;20032;-59
2024/01/05 05:34:19;;;;;;;14.85;3.95;;;8.40;98.50;;;;;;5108838;28;20027;-58
2024/01/05 05:36:45;;;;;;;22.67;5.18;;;8.50;98.30;;;;;;5108925;28;20055;-59
2024/01/05 05:39:10;;;;;;;24.50;4.70;;;8.50;98.30;;;;;;5108990;28;20030;-58
2024/01/05 05:41:36;;;;;;;24.23;4.53;;;8.50;98.40;;;;;;5108755;28;20024;-58
2024/01/05 05:44:03;;;;;;;21.80;4.32;;;8.50;98.40;;;;;;5108965;28;20498;-58
2024/01/05 05:46:29;;;;;;;22.20;4.65;;;8.50;98.50;;;;;;5108759;28;20040;-58
2024/01/05 05:48:54;;;;;;;20.05;4.70;;;8.50;98.60;;;;;;5108605;28;20384;-58
2024/01/05 05:51:20;;;;;;;90.15;12.45;;;8.50;98.80;;;;;;5108644;28;20025;-58
2024/01/05 05:53:45;;;;;;;57.88;7.35;;;8.50;98.90;;;;;;5108753;28;20032;-58
2024/01/05 05:56:11;;;;;;;77.95;8.68;;;8.50;99.00;;;;;;5108643;28;20032;-58
2024/01/05 05:58:36;;;;;;;49.53;7.63;;;8.60;99.10;;;;;;5108563;28;20042;-58
2024/01/05 06:01:02;;;;;;;56.75;7.50;;;8.50;99.10;;;;;;5090401;28;20039;-58
2024/01/05 06:03:28;;;;;;;38.13;6.72;;;8.60;99.30;;;;;;5107459;28;20462;-58
2024/01/05 06:05:53;;;;;;;39.95;6.95;;;8.60;99.50;;;;;;5108590;28;20047;-58
2024/01/05 06:08:19;;;;;;;51.80;8.40;;;8.60;99.60;;;;;;5108318;28;20039;-57
2024/01/05 06:10:44;;;;;;;52.08;7.65;;;8.60;99.70;;;;;;5108494;28;20031;-58
2024/01/05 06:13:10;;;;;;;41.83;7.53;;;8.60;99.80;;;;;;5090238;28;20070;-58
2024/01/05 06:15:35;;;;;;;46.03;6.32;;;8.60;99.90;;;;;;5108320;28;20035;-58
2024/01/05 06:18:01;;;;;;;40.35;7.10;;;8.70;99.90;;;;;;5107886;28;20059;-57
2024/01/05 06:20:26;;;;;;;39.03;6.80;;;8.70;99.90;;;;;;5107991;28;20028;-58
2024/01/05 06:22:52;;;;;;;41.65;8.40;;;8.70;99.90;;;;;;5108066;28;20353;-58
2024/01/05 06:25:18;;;;;;;37.05;7.55;;;8.70;99.90;;;;;;5108148;28;20111;-58
2024/01/05 06:27:45;;;;;;;40.55;7.55;;;8.70;99.90;;;;;;5107900;28;20376;-58
2024/01/05 06:30:10;;;;;;;53.35;7.18;;;8.70;99.90;;;;;;5090051;28;20031;-58
2024/01/05 06:32:37;;;;;;;58.60;7.63;;;8.70;99.90;;;;;;5107730;28;20024;-58
2024/01/05 06:35:07;;;;;;;41.92;8.60;;;8.80;99.90;;;;;;5089962;28;20040;-58
2024/01/05 06:37:32;;;;;;;48.15;8.57;;;8.80;99.90;;;;;;5089477;28;20030;-58
2024/01/05 06:39:58;;;;;;;39.15;8.40;;;8.80;99.90;;;;;;5107805;28;20041;-58
2024/01/05 06:42:23;;;;;;;31.40;8.07;;;8.90;99.90;;;;;;5107027;28;20074;-58
2024/01/05 06:44:50;;;;;;;45.10;7.85;;;8.90;99.90;;;;;;5107664;28;20035;-57
2024/01/05 06:47:16;;;;;;;42.55;8.38;;;8.90;99.90;;;;;;5107607;28;20032;-58
2024/01/05 06:49:41;;;;;;;47.53;7.93;;;8.90;99.90;;;;;;5107724;28;20478;-57
2024/01/05 06:52:07;;;;;;;40.40;8.15;;;8.90;99.90;;;;;;5107400;28;20423;-58
2024/01/05 06:54:34;;;;;;;39.65;9.05;;;8.80;99.90;;;;;;5107687;28;20027;-58
2024/01/05 06:56:59;;;;;;;45.42;8.85;;;8.90;99.90;;;;;;5107429;28;20111;-58
2024/01/05 06:59:30;;;;;;;46.90;8.95;;;8.90;99.90;;;;;;5107441;28;20032;-57
2024/01/05 07:01:55;;;;;;;29.25;7.45;;;8.90;99.90;;;;;;5107515;28;20044;-58
2024/01/05 07:04:21;;;;;;;40.55;7.30;;;8.90;99.90;;;;;;5105947;28;20039;-58
2024/01/05 07:06:47;;;;;;;47.05;8.10;;;8.90;99.90;;;;;;5122573;28;20074;-58
2024/01/05 07:09:13;;;;;;;44.35;7.95;;;8.90;99.90;;;;;;5127804;28;20016;-57
2024/01/05 07:11:39;;;;;;;36.78;7.25;;;8.90;99.90;;;;;;5112820;28;20133;-58
2024/01/05 07:14:05;;;;;;;38.17;5.65;;;8.90;99.90;;;;;;5106783;28;20020;-58
2024/01/05 07:16:30;;;;;;;27.63;6.22;;;8.90;99.90;;;;;;5106481;28;20032;-57
2024/01/05 07:18:56;;;;;;;39.53;6.68;;;8.90;99.90;;;;;;5106743;28;20028;-57
2024/01/05 07:21:21;;;;;;;27.67;6.00;;;8.90;99.90;;;;;;5107267;28;20028;-58
2024/01/05 07:23:47;;;;;;;23.33;5.15;;;8.90;99.90;;;;;;5104706;28;20043;-58
2024/01/05 07:26:13;;;;;;;30.13;6.30;;;9.00;99.90;;;;;;5094130;28;20025;-58
2024/01/05 07:28:39;;;;;;;27.40;5.65;;;9.00;99.90;;;;;;5097967;28;20448;-58
2024/01/05 07:31:05;;;;;;;28.50;5.07;;;8.90;99.90;;;;;;5102201;28;20028;-58
2024/01/05 07:33:34;;;;;;;23.77;4.95;;;8.90;99.90;;;;;;5086615;28;20074;-58
2024/01/05 07:36:04;;;;;;;23.48;5.97;;;8.90;99.90;;;;;;5086413;28;20108;-58
2024/01/05 07:38:31;;;;;;;20.52;5.32;;;8.90;99.90;;;;;;5086541;28;20040;-58
2024/01/05 07:40:57;;;;;;;30.48;5.65;;;8.90;99.90;;;;;;5089500;28;20039;-57
2024/01/05 07:43:23;;;;;;;21.70;5.28;;;8.90;99.90;;;;;;5105886;28;20032;-57
2024/01/05 07:45:48;;;;;;;13.27;4.53;;;8.90;99.90;;;;;;5101578;28;20063;-57
2024/01/05 07:48:15;;;;;;;26.27;5.57;;;8.90;99.90;;;;;;5098545;28;20055;-58
2024/01/05 07:50:41;;;;;;;29.00;5.45;;;8.90;99.90;;;;;;5106732;28;20024;-58
2024/01/05 07:53:06;;;;;;;24.92;6.38;;;8.90;99.90;;;;;;5106717;28;20096;-58
2024/01/05 07:55:32;;;;;;;27.88;5.28;;;8.90;99.90;;;;;;5105643;28;20032;-58
2024/01/05 07:57:58;;;;;;;25.38;5.05;;;8.90;99.90;;;;;;5103811;28;20024;-59
2024/01/05 08:00:23;;;;;;;53.25;6.65;;;8.90;99.90;;;;;;5106553;28;20372;-58
2024/01/05 08:02:49;;;;;;;43.03;5.72;;;8.90;99.90;;;;;;5106392;28;20052;-58
2024/01/05 08:05:14;;;;;;;36.03;6.25;;;8.90;99.90;;;;;;5106551;28;20024;-58
2024/01/05 08:07:43;;;;;;;25.63;5.75;;;8.90;99.90;;;;;;5106179;28;20024;-58
2024/01/05 08:10:09;;;;;;;38.35;6.85;;;8.90;99.90;;;;;;5106394;28;20025;-58
2024/01/05 08:12:35;;;;;;;59.17;7.32;;;8.90;99.90;;;;;;5106197;28;20088;-58
2024/01/05 08:15:01;;;;;;;41.42;6.47;;;9.00;99.90;;;;;;5106231;28;20024;-58
2024/01/05 08:17:26;;;;;;;55.13;8.70;;;8.90;99.90;;;;;;5096669;28;20020;-58
2024/01/05 08:19:52;;;;;;;59.83;7.90;;;8.90;99.90;;;;;;5086172;28;20025;-58
2024/01/05 08:22:18;;;;;;;52.25;7.90;;;8.90;99.90;;;;;;5086016;28;20029;-57
2024/01/05 08:24:43;;;;;;;47.42;8.20;;;9.00;99.90;;;;;;5104845;28;20097;-58
2024/01/05 08:27:09;;;;;;;30.85;6.68;;;9.00;99.90;;;;;;5106000;28;20036;-58
2024/01/05 08:29:34;;;;;;;61.55;8.30;;;9.00;99.90;;;;;;5106177;28;20016;-57
2024/01/05 08:32:02;;;;;;;55.58;7.50;;;9.00;99.90;;;;;;5106166;28;20024;-58
2024/01/05 08:34:28;;;;;;;54.58;8.55;;;9.00;99.90;;;;;;5104026;28;20036;-58
2024/01/05 08:36:54;;;;;;;75.10;9.18;;;9.00;99.90;;;;;;5104934;28;20034;-57
2024/01/05 08:39:19;;;;;;;53.72;9.13;;;9.00;99.90;;;;;;5105297;28;20027;-58
2024/01/05 08:41:45;;;;;;;51.05;8.65;;;9.00;99.90;;;;;;5105129;28;20024;-58
2024/01/05 08:44:11;;;;;;;53.63;8.40;;;9.10;99.90;;;;;;5107026;28;20071;-58
2024/01/05 08:46:36;;;;;;;52.13;7.88;;;9.10;99.90;;;;;;5106098;28;20088;-58
2024/01/05 08:49:02;;;;;;;64.10;9.63;;;9.10;99.90;;;;;;5112294;28;20024;-58
2024/01/05 08:51:28;;;;;;;99.07;11.98;;;9.10;99.90;;;;;;5115699;28;20384;-58
2024/01/05 08:53:54;;;;;;;86.40;10.73;;;9.10;99.90;;;;;;5118711;28;20024;-57
2024/01/05 08:56:19;;;;;;;86.10;11.32;;;9.10;99.90;;;;;;5100615;28;20047;-57
2024/01/05 08:58:45;;;;;;;73.80;9.80;;;9.10;99.90;;;;;;5100087;28;20032;-58
2024/01/05 09:01:11;;;;;;;67.60;10.75;;;9.10;99.90;;;;;;5112902;28;20028;-58
2024/01/05 09:03:36;;;;;;;69.50;9.57;;;9.10;99.90;;;;;;5098563;28;20024;-58
2024/01/05 09:06:02;;;;;;;55.55;8.95;;;9.10;99.90;;;;;;5096176;28;20028;-58
2024/01/05 09:08:27;;;;;;;58.72;9.18;;;9.10;99.90;;;;;;5107696;28;20846;-58
2024/01/05 09:10:53;;;;;;;57.80;8.73;;;9.10;99.90;;;;;;5105957;28;20429;-57
2024/01/05 09:13:19;;;;;;;63.30;9.13;;;9.20;99.90;;;;;;5107762;28;20525;-58
2024/01/05 09:15:45;;;;;;;55.72;8.90;;;9.20;99.90;;;;;;5109678;28;20036;-58
2024/01/05 09:18:11;;;;;;;69.00;10.07;;;9.20;99.90;;;;;;5113013;28;20016;-58
2024/01/05 09:20:37;;;;;;;69.97;9.93;;;9.20;99.90;;;;;;5113697;28;20033;-58
2024/01/05 09:23:03;;;;;;;73.28;10.35;;;9.20;99.90;;;;;;5103055;28;21436;-58
2024/01/05 09:25:30;;;;;;;64.78;10.55;;;9.20;99.90;;;;;;5100653;28;20051;-57
2024/01/05 09:27:56;;;;;;;76.03;9.73;;;9.20;99.90;;;;;;5110932;28;20027;-58
2024/01/05 09:30:21;;;;;;;68.22;10.02;;;9.20;99.90;;;;;;5069388;28;20128;-58
2024/01/05 09:32:47;;;;;;;103.57;11.77;;;9.20;99.90;;;;;;5091660;28;20932;-57
2024/01/05 09:35:12;;;;;;;83.30;10.27;;;9.20;99.90;;;;;;5102163;28;20036;-57
2024/01/05 09:37:38;;;;;;;56.58;8.35;;;9.30;99.90;;;;;;5095745;28;20052;-57
2024/01/05 09:40:04;;;;;;;55.75;9.93;;;9.20;99.90;;;;;;5089397;28;20028;-57
2024/01/05 09:42:30;;;;;;;62.55;9.90;;;9.30;99.90;;;;;;5078278;28;20032;-57
2024/01/05 09:44:55;;;;;;;80.25;11.10;;;9.30;99.90;;;;;;5091574;28;20035;-57
2024/01/05 09:47:21;;;;;;;77.30;9.95;;;9.30;99.90;;;;;;5073015;28;20463;-57
2024/01/05 09:49:49;;;;;;;54.60;9.20;;;9.30;99.90;;;;;;5105936;27;20065;-58
2024/01/05 09:52:14;;;;;;;51.75;9.43;;;9.30;99.90;;;;;;5093128;28;20017;-58
2024/01/05 09:54:40;;;;;;;60.17;11.00;;;9.30;99.90;;;;;;5090349;28;20031;-57
2024/01/05 09:57:06;;;;;;;76.93;10.43;;;9.40;99.90;;;;;;5107806;27;20056;-58
2024/01/05 09:59:31;;;;;;;71.72;11.25;;;9.40;99.90;;;;;;5089390;28;20027;-57
2024/01/05 10:01:57;;;;;;;80.90;12.30;;;9.40;99.90;;;;;;5083530;28;20095;-58
2024/01/05 10:04:23;;;;;;;117.00;14.70;;;9.40;99.90;;;;;;5072185;28;20077;-58
2024/01/05 10:06:58;;;;;;;92.07;11.57;;;9.40;99.90;;;;;;5094549;28;20040;-58
2024/01/05 10:09:24;;;;;;;213.43;21.17;;;9.50;99.90;;;;;;5077201;28;20020;-57
2024/01/05 10:11:49;;;;;;;117.45;15.80;;;9.50;99.90;;;;;;5088349;28;20033;-57
2024/01/05 10:14:15;;;;;;;97.72;12.57;;;9.50;99.90;;;;;;5091016;28;20025;-58
2024/01/05 10:16:41;;;;;;;179.40;19.55;;;9.50;99.90;;;;;;5092996;28;20549;-58
2024/01/05 10:19:14;;;;;;;138.80;17.23;;;9.60;99.90;;;;;;5086459;28;20063;-58
2024/01/05 10:21:41;;;;;;;188.80;20.77;;;9.60;99.90;;;;;;5093600;28;21036;-57
2024/01/05 10:24:29;;;;;;;166.38;19.48;;;9.60;99.90;;;;;;5087401;28;20039;-57
2024/01/05 10:27:04;;;;;;;206.93;20.75;;;9.60;99.90;;;;;;5088662;28;20036;-58
2024/01/05 10:29:30;;;;;;;203.95;22.02;;;9.60;99.90;;;;;;5084781;28;20047;-57
2024/01/05 10:32:09;;;;;;;176.00;20.25;;;9.60;99.90;;;;;;5092997;28;20047;-58
2024/01/05 10:34:35;;;;;;;118.43;17.30;;;9.60;99.90;;;;;;5090871;28;20024;-58
2024/01/05 10:37:04;;;;;;;148.18;18.58;;;9.70;99.90;;;;;;5094606;28;20082;-57
2024/01/05 10:39:30;;;;;;;142.60;17.73;;;9.70;99.90;;;;;;5096235;28;20084;-58
2024/01/05 10:42:16;;;;;;;139.98;18.70;;;9.70;99.90;;;;;;5090110;28;20036;-58
2024/01/05 10:44:42;;;;;;;171.82;21.02;;;9.70;99.90;;;;;;5092063;28;20028;-57
2024/01/05 10:47:08;;;;;;;176.35;21.67;;;9.70;99.90;;;;;;5083302;28;20100;-57
2024/01/05 10:49:34;;;;;;;160.07;21.88;;;9.80;99.90;;;;;;5118444;27;20553;-49
2024/01/05 10:52:00;;;;;;;225.05;25.55;;;9.80;99.90;;;;;;5094227;28;20122;-50
2024/01/05 10:54:25;;;;;;;167.10;21.98;;;9.80;99.90;;;;;;5093735;28;20034;-49
2024/01/05 10:56:54;;;;;;;157.55;21.88;;;9.80;99.90;;;;;;5085600;28;20365;-49
2024/01/05 10:59:20;;;;;;;240.85;26.50;;;9.80;99.90;;;;;;5124472;27;20138;-49
2024/01/05 11:01:46;;;;;;;209.05;25.50;;;9.90;99.90;;;;;;5095348;28;20483;-50
2024/01/05 11:04:12;;;;;;;216.00;26.15;;;9.90;99.90;;;;;;5118903;27;20071;-49
2024/01/05 11:06:37;;;;;;;198.40;23.10;;;9.90;99.90;;;;;;5090670;28;20512;-49
2024/01/05 11:09:13;;;;;;;192.98;22.15;;;9.90;99.90;;;;;;5105417;27;20037;-49
2024/01/05 11:11:54;;;;;;;183.55;23.08;;;9.90;99.90;;;;;;5090872;28;20100;-49
2024/01/05 11:14:32;;;;;;;154.65;21.15;;;9.90;99.90;;;;;;5079590;28;20044;-50
2024/01/05 11:17:04;;;;;;;176.75;21.90;;;10.00;99.90;;;;;;5086855;28;20025;-49
2024/01/05 11:19:41;;;;;;;208.98;22.25;;;9.90;99.90;;;;;;5101459;28;20032;-49
2024/01/05 11:22:10;;;;;;;217.75;24.70;;;10.00;99.90;;;;;;5092820;28;20495;-49
2024/01/05 11:24:36;;;;;;;225.77;25.10;;;10.00;99.90;;;;;;5083776;28;20020;-49
2024/01/05 11:27:26;;;;;;;396.02;40.67;;;10.00;99.90;;;;;;5091775;28;20043;-50
2024/01/05 11:29:53;;;;;;;297.13;32.70;;;10.00;99.90;;;;;;5082169;28;20027;-50
2024/01/05 11:32:37;;;;;;;275.88;34.95;;;10.00;99.90;;;;;;5088171;28;20529;-49
2024/01/05 11:35:23;;;;;;;467.88;49.22;;;10.10;99.90;;;;;;5080576;28;20031;-49
2024/01/05 11:37:49;;;;;;;;;;;10.10;99.90;;;;;;5086404;28;20560;-50
2024/01/05 11:40:33;;;;;;;262.60;28.30;;;10.10;99.90;;;;;;5088693;28;19916;-50
2024/01/05 11:43:19;;;;;;;249.23;28.52;;;10.10;99.90;;;;;;5083634;28;20086;-49
2024/01/05 11:45:45;;;;;;;;;;;10.10;99.90;;;;;;5086524;28;20035;-49
2024/01/05 11:48:30;;;;;;;;;;;10.10;99.90;;;;;;5087856;28;19916;-49
2024/01/05 11:50:57;;;;;;;254.35;26.90;;;10.10;99.90;;;;;;5091500;28;19920;-49
2024/01/05 11:53:24;;;;;;;245.63;29.13;;;10.10;99.90;;;;;;5088842;28;20028;-49
2024/01/05 11:55:50;;;;;;;417.25;49.75;;;10.10;99.90;;;;;;5082500;28;20036;-49
2024/01/05 11:58:18;;;;;;;298.35;33.13;;;10.10;99.90;;;;;;5080459;28;20039;-49
2024/01/05 12:00:44;;;;;;;216.77;27.13;;;10.10;99.90;;;;;;5090553;28;20058;-49
2024/01/05 12:03:10;;;;;;;272.00;32.13;;;10.10;99.90;;;;;;5088010;28;20043;-49
2024/01/05 12:05:38;;;;;;;553.97;61.53;;;10.10;99.90;;;;;;5081462;28;20062;-49
2024/01/05 12:08:13;;;;;;;259.67;31.02;;;10.10;99.90;;;;;;5081159;28;20081;-49
2024/01/05 12:10:39;;;;;;;251.85;29.00;;;10.20;99.90;;;;;;5093461;28;20032;-49
2024/01/05 12:13:05;;;;;;;260.92;29.27;;;10.20;99.90;;;;;;5086962;28;20050;-49
2024/01/05 12:15:31;;;;;;;227.82;24.70;;;10.20;99.90;;;;;;5086612;28;20096;-49
2024/01/05 12:18:09;;;;;;;262.85;29.35;;;10.20;99.90;;;;;;5093781;28;20035;-49
2024/01/05 12:20:35;;;;;;;248.23;29.88;;;10.20;99.90;;;;;;5103284;28;20584;-49
2024/01/05 12:23:01;;;;;;;347.67;36.70;;;10.20;99.90;;;;;;5085227;28;20035;-49
2024/01/05 12:25:27;;;;;;;249.10;28.50;;;10.30;99.90;;;;;;5089805;28;20032;-49
2024/01/05 12:27:52;;;;;;;245.80;28.08;;;10.30;99.90;;;;;;5067232;28;20434;-49
2024/01/05 12:30:18;;;;;;;208.52;23.95;;;10.20;99.90;;;;;;5088770;28;20036;-49
2024/01/05 12:32:43;;;;;;;282.08;32.88;;;10.20;99.90;;;;;;5089993;28;20089;-49
2024/01/05 12:35:09;;;;;;;278.90;30.27;;;10.20;99.90;;;;;;5087908;28;20037;-49
2024/01/05 12:37:34;;;;;;;234.15;25.08;;;10.20;99.90;;;;;;5083242;28;20081;-49
2024/01/05 12:40:10;;;;;;;246.82;25.50;;;10.20;99.90;;;;;;5085524;28;20040;-49